sensor_id;sensor_type;location;lat;lon;timestamp;P1;durP1;ratioP1;P2;durP2;ratioP2
28926;SDS011;16038;47.692;9.400;2023-11-21T00:00:24;6.50;;;2.20;;
28926;SDS011;16038;47.692;9.400;2023-11-21T00:02:50;9.95;;;2.25;;
28926;SDS011;16038;47.692;9.400;2023-11-21T00:05:15;17.08;;;3.80;;
28926;SDS011;16038;47.692;9.400;2023-11-21T00:07:41;19.52;;;3.03;;
28926;SDS011;16038;47.692;9.400;2023-11-21T00:10:08;11.40;;;3.15;;
28926;SDS011;16038;47.692;9.400;2023-11-21T00:12:35;11.45;;;2.50;;
28926;SDS011;16038;47.692;9.400;2023-11-21T00:15:01;7.68;;;1.90;;
28926;SDS011;16038;47.692;9.400;2023-11-21T00:17:27;10.32;;;1.90;;
28926;SDS011;16038;47.692;9.400;2023-11-21T00:19:53;8.18;;;1.60;;
28926;SDS011;16038;47.692;9.400;2023-11-21T00:22:19;8.63;;;1.88;;
28926;SDS011;16038;47.692;9.400;2023-11-21T00:24:44;12.70;;;2.28;;
28926;SDS011;16038;47.692;9.400;2023-11-21T00:27:10;15.15;;;2.10;;
28926;SDS011;16038;47.692;9.400;2023-11-21T00:29:35;14.40;;;2.05;;
28926;SDS011;16038;47.692;9.400;2023-11-21T00:32:01;8.82;;;1.58;;
28926;SDS011;16038;47.692;9.400;2023-11-21T00:34:27;12.25;;;2.50;;
28926;SDS011;16038;47.692;9.400;2023-11-21T00:36:52;12.45;;;2.58;;
28926;SDS011;16038;47.692;9.400;2023-11-21T00:39:18;11.80;;;3.25;;
28926;SDS011;16038;47.692;9.400;2023-11-21T00:41:43;17.52;;;4.25;;
28926;SDS011;16038;47.692;9.400;2023-11-21T00:44:10;8.93;;;2.47;;
28926;SDS011;16038;47.692;9.400;2023-11-21T00:46:36;13.43;;;2.35;;
28926;SDS011;16038;47.692;9.400;2023-11-21T00:49:02;9.50;;;1.95;;
28926;SDS011;16038;47.692;9.400;2023-11-21T00:51:29;15.55;;;2.33;;
28926;SDS011;16038;47.692;9.400;2023-11-21T00:53:55;11.23;;;2.00;;
28926;SDS011;16038;47.692;9.400;2023-11-21T00:56:20;15.27;;;2.60;;
28926;SDS011;16038;47.692;9.400;2023-11-21T00:58:46;14.02;;;2.25;;
28926;SDS011;16038;47.692;9.400;2023-11-21T01:01:15;10.98;;;2.20;;
28926;SDS011;16038;47.692;9.400;2023-11-21T01:03:41;12.20;;;2.30;;
28926;SDS011;16038;47.692;9.400;2023-11-21T01:06:06;13.73;;;2.35;;
28926;SDS011;16038;47.692;9.400;2023-11-21T01:08:32;7.47;;;2.22;;
28926;SDS011;16038;47.692;9.400;2023-11-21T01:10:58;11.45;;;2.30;;
28926;SDS011;16038;47.692;9.400;2023-11-21T01:13:23;7.32;;;2.17;;
28926;SDS011;16038;47.692;9.400;2023-11-21T01:15:48;6.78;;;1.50;;
28926;SDS011;16038;47.692;9.400;2023-11-21T01:18:14;10.75;;;1.92;;
28926;SDS011;16038;47.692;9.400;2023-11-21T01:20:39;5.97;;;1.55;;
28926;SDS011;16038;47.692;9.400;2023-11-21T01:23:05;8.82;;;1.73;;
28926;SDS011;16038;47.692;9.400;2023-11-21T01:25:30;13.25;;;1.92;;
28926;SDS011;16038;47.692;9.400;2023-11-21T01:27:56;10.93;;;1.88;;
28926;SDS011;16038;47.692;9.400;2023-11-21T01:30:21;10.93;;;1.88;;
28926;SDS011;16038;47.692;9.400;2023-11-21T01:32:47;12.38;;;1.95;;
28926;SDS011;16038;47.692;9.400;2023-11-21T01:35:12;7.28;;;1.92;;
28926;SDS011;16038;47.692;9.400;2023-11-21T01:37:38;7.07;;;2.25;;
28926;SDS011;16038;47.692;9.400;2023-11-21T01:40:04;5.38;;;1.63;;
28926;SDS011;16038;47.692;9.400;2023-11-21T01:42:34;8.77;;;2.17;;
28926;SDS011;16038;47.692;9.400;2023-11-21T01:45:00;8.93;;;1.88;;
28926;SDS011;16038;47.692;9.400;2023-11-21T01:49:55;7.88;;;1.75;;
28926;SDS011;16038;47.692;9.400;2023-11-21T01:52:20;7.20;;;1.92;;
28926;SDS011;16038;47.692;9.400;2023-11-21T01:54:46;10.15;;;2.00;;
28926;SDS011;16038;47.692;9.400;2023-11-21T01:57:11;5.60;;;1.60;;
28926;SDS011;16038;47.692;9.400;2023-11-21T01:59:37;4.90;;;1.63;;
28926;SDS011;16038;47.692;9.400;2023-11-21T02:02:04;11.00;;;1.80;;
28926;SDS011;16038;47.692;9.400;2023-11-21T02:04:33;7.88;;;1.58;;
28926;SDS011;16038;47.692;9.400;2023-11-21T02:06:59;5.80;;;1.98;;
28926;SDS011;16038;47.692;9.400;2023-11-21T02:09:26;7.05;;;1.80;;
28926;SDS011;16038;47.692;9.400;2023-11-21T02:11:52;8.80;;;1.88;;
28926;SDS011;16038;47.692;9.400;2023-11-21T02:14:19;10.45;;;1.92;;
28926;SDS011;16038;47.692;9.400;2023-11-21T02:16:47;9.68;;;2.10;;
28926;SDS011;16038;47.692;9.400;2023-11-21T02:19:15;8.98;;;2.72;;
28926;SDS011;16038;47.692;9.400;2023-11-21T02:21:45;10.07;;;2.00;;
28926;SDS011;16038;47.692;9.400;2023-11-21T02:24:10;9.43;;;1.98;;
28926;SDS011;16038;47.692;9.400;2023-11-21T02:26:36;8.68;;;2.30;;
28926;SDS011;16038;47.692;9.400;2023-11-21T02:29:01;10.95;;;1.80;;
28926;SDS011;16038;47.692;9.400;2023-11-21T02:31:29;7.07;;;1.90;;
28926;SDS011;16038;47.692;9.400;2023-11-21T02:33:55;5.30;;;1.60;;
28926;SDS011;16038;47.692;9.400;2023-11-21T02:36:20;7.55;;;1.83;;
28926;SDS011;16038;47.692;9.400;2023-11-21T02:38:46;9.45;;;2.42;;
28926;SDS011;16038;47.692;9.400;2023-11-21T02:41:12;6.78;;;1.77;;
28926;SDS011;16038;47.692;9.400;2023-11-21T02:43:38;5.35;;;1.42;;
28926;SDS011;16038;47.692;9.400;2023-11-21T02:46:04;6.75;;;1.73;;
28926;SDS011;16038;47.692;9.400;2023-11-21T02:48:29;9.85;;;2.00;;
28926;SDS011;16038;47.692;9.400;2023-11-21T02:50:55;7.35;;;1.80;;
28926;SDS011;16038;47.692;9.400;2023-11-21T02:53:21;7.50;;;2.35;;
28926;SDS011;16038;47.692;9.400;2023-11-21T02:55:46;8.15;;;1.95;;
28926;SDS011;16038;47.692;9.400;2023-11-21T02:58:12;8.27;;;1.70;;
28926;SDS011;16038;47.692;9.400;2023-11-21T03:00:37;9.10;;;2.00;;
28926;SDS011;16038;47.692;9.400;2023-11-21T03:03:05;10.10;;;2.38;;
28926;SDS011;16038;47.692;9.400;2023-11-21T03:05:30;9.80;;;1.90;;
28926;SDS011;16038;47.692;9.400;2023-11-21T03:07:56;5.00;;;1.58;;
28926;SDS011;16038;47.692;9.400;2023-11-21T03:10:21;6.57;;;1.80;;
28926;SDS011;16038;47.692;9.400;2023-11-21T03:12:47;7.90;;;1.50;;
28926;SDS011;16038;47.692;9.400;2023-11-21T03:15:12;11.18;;;1.88;;
28926;SDS011;16038;47.692;9.400;2023-11-21T03:17:38;6.50;;;2.05;;
28926;SDS011;16038;47.692;9.400;2023-11-21T03:20:03;8.00;;;1.48;;
28926;SDS011;16038;47.692;9.400;2023-11-21T03:22:29;7.55;;;1.60;;
28926;SDS011;16038;47.692;9.400;2023-11-21T03:24:55;5.53;;;1.35;;
28926;SDS011;16038;47.692;9.400;2023-11-21T03:27:20;10.57;;;1.50;;
28926;SDS011;16038;47.692;9.400;2023-11-21T03:29:46;6.38;;;1.25;;
28926;SDS011;16038;47.692;9.400;2023-11-21T03:32:12;6.53;;;1.52;;
28926;SDS011;16038;47.692;9.400;2023-11-21T03:34:41;4.57;;;0.98;;
28926;SDS011;16038;47.692;9.400;2023-11-21T03:37:22;4.97;;;1.00;;
28926;SDS011;16038;47.692;9.400;2023-11-21T03:39:48;5.80;;;1.17;;
28926;SDS011;16038;47.692;9.400;2023-11-21T03:42:14;3.92;;;1.10;;
28926;SDS011;16038;47.692;9.400;2023-11-21T03:44:39;7.70;;;1.17;;
28926;SDS011;16038;47.692;9.400;2023-11-21T03:47:04;6.25;;;2.08;;
28926;SDS011;16038;47.692;9.400;2023-11-21T03:49:30;3.28;;;1.17;;
28926;SDS011;16038;47.692;9.400;2023-11-21T03:51:56;9.13;;;1.20;;
28926;SDS011;16038;47.692;9.400;2023-11-21T03:54:21;5.38;;;1.10;;
28926;SDS011;16038;47.692;9.400;2023-11-21T03:56:46;3.35;;;1.15;;
28926;SDS011;16038;47.692;9.400;2023-11-21T03:59:12;5.57;;;1.20;;
28926;SDS011;16038;47.692;9.400;2023-11-21T04:01:37;4.18;;;1.10;;
28926;SDS011;16038;47.692;9.400;2023-11-21T04:04:03;6.35;;;1.30;;
28926;SDS011;16038;47.692;9.400;2023-11-21T04:06:29;9.50;;;1.50;;
28926;SDS011;16038;47.692;9.400;2023-11-21T04:08:55;9.48;;;1.20;;
28926;SDS011;16038;47.692;9.400;2023-11-21T04:11:20;5.13;;;1.40;;
28926;SDS011;16038;47.692;9.400;2023-11-21T04:13:45;8.25;;;1.73;;
28926;SDS011;16038;47.692;9.400;2023-11-21T04:16:12;5.38;;;1.13;;
28926;SDS011;16038;47.692;9.400;2023-11-21T04:18:37;4.43;;;1.23;;
28926;SDS011;16038;47.692;9.400;2023-11-21T04:21:04;3.60;;;1.13;;
28926;SDS011;16038;47.692;9.400;2023-11-21T04:23:30;3.80;;;1.20;;
28926;SDS011;16038;47.692;9.400;2023-11-21T04:25:57;5.55;;;1.17;;
28926;SDS011;16038;47.692;9.400;2023-11-21T04:28:25;3.17;;;1.27;;
28926;SDS011;16038;47.692;9.400;2023-11-21T04:30:51;3.00;;;1.20;;
28926;SDS011;16038;47.692;9.400;2023-11-21T04:33:17;8.80;;;1.50;;
28926;SDS011;16038;47.692;9.400;2023-11-21T04:35:42;3.17;;;1.17;;
28926;SDS011;16038;47.692;9.400;2023-11-21T04:38:07;4.35;;;1.23;;
28926;SDS011;16038;47.692;9.400;2023-11-21T04:40:33;6.65;;;1.52;;
28926;SDS011;16038;47.692;9.400;2023-11-21T04:42:58;9.02;;;1.27;;
28926;SDS011;16038;47.692;9.400;2023-11-21T04:45:24;4.32;;;1.50;;
28926;SDS011;16038;47.692;9.400;2023-11-21T04:47:49;6.20;;;1.40;;
28926;SDS011;16038;47.692;9.400;2023-11-21T04:50:15;2.25;;;1.20;;
28926;SDS011;16038;47.692;9.400;2023-11-21T04:52:40;8.32;;;1.33;;
28926;SDS011;16038;47.692;9.400;2023-11-21T04:55:06;7.43;;;1.13;;
28926;SDS011;16038;47.692;9.400;2023-11-21T04:57:35;5.20;;;1.33;;
28926;SDS011;16038;47.692;9.400;2023-11-21T05:00:01;6.25;;;1.30;;
28926;SDS011;16038;47.692;9.400;2023-11-21T05:02:26;5.85;;;1.45;;
28926;SDS011;16038;47.692;9.400;2023-11-21T05:04:51;2.70;;;0.93;;
28926;SDS011;16038;47.692;9.400;2023-11-21T05:07:18;5.43;;;1.20;;
28926;SDS011;16038;47.692;9.400;2023-11-21T05:09:43;3.20;;;1.17;;
28926;SDS011;16038;47.692;9.400;2023-11-21T05:12:12;7.18;;;1.25;;
28926;SDS011;16038;47.692;9.400;2023-11-21T05:14:39;4.53;;;1.20;;
28926;SDS011;16038;47.692;9.400;2023-11-21T05:17:05;3.50;;;1.20;;
28926;SDS011;16038;47.692;9.400;2023-11-21T05:19:30;4.68;;;1.23;;
28926;SDS011;16038;47.692;9.400;2023-11-21T05:21:57;5.10;;;1.33;;
28926;SDS011;16038;47.692;9.400;2023-11-21T05:24:24;6.10;;;1.25;;
28926;SDS011;16038;47.692;9.400;2023-11-21T05:26:49;2.47;;;1.02;;
28926;SDS011;16038;47.692;9.400;2023-11-21T05:29:14;4.03;;;1.35;;
28926;SDS011;16038;47.692;9.400;2023-11-21T05:31:40;4.72;;;1.30;;
28926;SDS011;16038;47.692;9.400;2023-11-21T05:34:05;4.75;;;1.10;;
28926;SDS011;16038;47.692;9.400;2023-11-21T05:36:31;5.45;;;1.10;;
28926;SDS011;16038;47.692;9.400;2023-11-21T05:38:56;4.65;;;1.73;;
28926;SDS011;16038;47.692;9.400;2023-11-21T05:41:22;8.55;;;2.38;;
28926;SDS011;16038;47.692;9.400;2023-11-21T05:43:48;7.85;;;2.08;;
28926;SDS011;16038;47.692;9.400;2023-11-21T05:46:13;6.50;;;1.52;;
28926;SDS011;16038;47.692;9.400;2023-11-21T05:48:39;2.70;;;1.23;;
28926;SDS011;16038;47.692;9.400;2023-11-21T05:51:05;4.63;;;1.20;;
28926;SDS011;16038;47.692;9.400;2023-11-21T05:53:31;3.33;;;1.48;;
28926;SDS011;16038;47.692;9.400;2023-11-21T05:55:56;8.63;;;1.38;;
28926;SDS011;16038;47.692;9.400;2023-11-21T05:58:22;5.13;;;1.23;;
28926;SDS011;16038;47.692;9.400;2023-11-21T06:00:48;3.72;;;1.58;;
28926;SDS011;16038;47.692;9.400;2023-11-21T06:03:13;3.97;;;1.30;;
28926;SDS011;16038;47.692;9.400;2023-11-21T06:05:38;6.47;;;1.70;;
28926;SDS011;16038;47.692;9.400;2023-11-21T06:08:04;5.90;;;1.33;;
28926;SDS011;16038;47.692;9.400;2023-11-21T06:10:29;3.33;;;1.27;;
28926;SDS011;16038;47.692;9.400;2023-11-21T06:12:55;4.32;;;1.30;;
28926;SDS011;16038;47.692;9.400;2023-11-21T06:15:20;6.13;;;1.33;;
28926;SDS011;16038;47.692;9.400;2023-11-21T06:17:48;3.83;;;1.25;;
28926;SDS011;16038;47.692;9.400;2023-11-21T06:20:17;7.05;;;2.28;;
28926;SDS011;16038;47.692;9.400;2023-11-21T06:22:48;3.72;;;1.60;;
28926;SDS011;16038;47.692;9.400;2023-11-21T06:25:15;5.70;;;1.58;;
28926;SDS011;16038;47.692;9.400;2023-11-21T06:27:44;7.50;;;1.70;;
28926;SDS011;16038;47.692;9.400;2023-11-21T06:30:12;4.38;;;1.67;;
28926;SDS011;16038;47.692;9.400;2023-11-21T06:32:39;5.50;;;2.08;;
28926;SDS011;16038;47.692;9.400;2023-11-21T06:35:05;3.42;;;1.80;;
28926;SDS011;16038;47.692;9.400;2023-11-21T06:37:31;5.18;;;1.88;;
28926;SDS011;16038;47.692;9.400;2023-11-21T06:39:58;5.53;;;1.88;;
28926;SDS011;16038;47.692;9.400;2023-11-21T06:42:24;7.45;;;2.30;;
28926;SDS011;16038;47.692;9.400;2023-11-21T06:44:50;6.90;;;2.40;;
28926;SDS011;16038;47.692;9.400;2023-11-21T06:47:19;8.40;;;2.10;;
28926;SDS011;16038;47.692;9.400;2023-11-21T06:49:45;4.75;;;1.75;;
28926;SDS011;16038;47.692;9.400;2023-11-21T06:52:13;6.15;;;1.58;;
28926;SDS011;16038;47.692;9.400;2023-11-21T06:54:39;5.70;;;1.90;;
28926;SDS011;16038;47.692;9.400;2023-11-21T06:57:05;6.07;;;1.63;;
28926;SDS011;16038;47.692;9.400;2023-11-21T06:59:30;4.90;;;1.83;;
28926;SDS011;16038;47.692;9.400;2023-11-21T07:01:55;4.43;;;1.77;;
28926;SDS011;16038;47.692;9.400;2023-11-21T07:04:21;6.95;;;1.80;;
28926;SDS011;16038;47.692;9.400;2023-11-21T07:06:46;5.82;;;1.70;;
28926;SDS011;16038;47.692;9.400;2023-11-21T07:09:11;3.97;;;1.60;;
28926;SDS011;16038;47.692;9.400;2023-11-21T07:11:37;5.88;;;1.60;;
28926;SDS011;16038;47.692;9.400;2023-11-21T07:14:04;5.47;;;1.58;;
28926;SDS011;16038;47.692;9.400;2023-11-21T07:16:35;3.60;;;1.40;;
28926;SDS011;16038;47.692;9.400;2023-11-21T07:19:05;7.45;;;1.90;;
28926;SDS011;16038;47.692;9.400;2023-11-21T07:21:35;5.80;;;2.10;;
28926;SDS011;16038;47.692;9.400;2023-11-21T07:24:01;6.43;;;2.80;;
28926;SDS011;16038;47.692;9.400;2023-11-21T07:26:27;5.82;;;2.33;;
28926;SDS011;16038;47.692;9.400;2023-11-21T07:28:53;9.20;;;2.38;;
28926;SDS011;16038;47.692;9.400;2023-11-21T07:31:19;2.90;;;1.30;;
28926;SDS011;16038;47.692;9.400;2023-11-21T07:33:44;8.50;;;1.50;;
28926;SDS011;16038;47.692;9.400;2023-11-21T07:36:13;6.57;;;1.38;;
28926;SDS011;16038;47.692;9.400;2023-11-21T07:38:39;6.38;;;1.48;;
28926;SDS011;16038;47.692;9.400;2023-11-21T07:41:05;2.83;;;1.38;;
28926;SDS011;16038;47.692;9.400;2023-11-21T07:43:33;4.65;;;1.73;;
28926;SDS011;16038;47.692;9.400;2023-11-21T07:46:03;8.45;;;1.67;;
28926;SDS011;16038;47.692;9.400;2023-11-21T07:48:32;5.15;;;1.20;;
28926;SDS011;16038;47.692;9.400;2023-11-21T07:50:58;5.50;;;1.30;;
28926;SDS011;16038;47.692;9.400;2023-11-21T07:53:25;4.38;;;1.17;;
28926;SDS011;16038;47.692;9.400;2023-11-21T07:55:54;10.48;;;1.45;;
28926;SDS011;16038;47.692;9.400;2023-11-21T07:58:20;3.97;;;1.42;;
28926;SDS011;16038;47.692;9.400;2023-11-21T08:00:45;5.47;;;1.10;;
28926;SDS011;16038;47.692;9.400;2023-11-21T08:03:11;3.00;;;1.00;;
28926;SDS011;16038;47.692;9.400;2023-11-21T08:05:38;4.18;;;2.00;;
28926;SDS011;16038;47.692;9.400;2023-11-21T08:08:04;3.75;;;0.93;;
28926;SDS011;16038;47.692;9.400;2023-11-21T08:10:30;1.85;;;0.90;;
28926;SDS011;16038;47.692;9.400;2023-11-21T08:12:55;3.15;;;1.10;;
28926;SDS011;16038;47.692;9.400;2023-11-21T08:15:21;3.78;;;1.50;;
28926;SDS011;16038;47.692;9.400;2023-11-21T08:17:49;5.13;;;2.17;;
28926;SDS011;16038;47.692;9.400;2023-11-21T08:20:15;4.70;;;1.63;;
28926;SDS011;16038;47.692;9.400;2023-11-21T08:22:41;3.20;;;1.10;;
28926;SDS011;16038;47.692;9.400;2023-11-21T08:25:07;2.40;;;1.27;;
28926;SDS011;16038;47.692;9.400;2023-11-21T08:27:33;6.80;;;1.35;;
28926;SDS011;16038;47.692;9.400;2023-11-21T08:30:02;3.80;;;1.42;;
28926;SDS011;16038;47.692;9.400;2023-11-21T08:32:28;5.20;;;1.30;;
28926;SDS011;16038;47.692;9.400;2023-11-21T08:35:00;5.80;;;1.75;;
28926;SDS011;16038;47.692;9.400;2023-11-21T08:37:26;6.32;;;1.17;;
28926;SDS011;16038;47.692;9.400;2023-11-21T08:39:57;4.33;;;1.60;;
28926;SDS011;16038;47.692;9.400;2023-11-21T08:42:24;3.60;;;1.60;;
28926;SDS011;16038;47.692;9.400;2023-11-21T08:44:50;4.70;;;1.65;;
28926;SDS011;16038;47.692;9.400;2023-11-21T08:47:16;7.22;;;2.05;;
28926;SDS011;16038;47.692;9.400;2023-11-21T08:49:41;6.18;;;1.70;;
28926;SDS011;16038;47.692;9.400;2023-11-21T08:52:07;4.32;;;1.70;;
28926;SDS011;16038;47.692;9.400;2023-11-21T08:54:33;7.63;;;1.70;;
28926;SDS011;16038;47.692;9.400;2023-11-21T08:56:59;4.75;;;1.35;;
28926;SDS011;16038;47.692;9.400;2023-11-21T08:59:25;3.35;;;1.35;;
28926;SDS011;16038;47.692;9.400;2023-11-21T09:01:51;6.60;;;1.70;;
28926;SDS011;16038;47.692;9.400;2023-11-21T09:04:17;8.30;;;1.40;;
28926;SDS011;16038;47.692;9.400;2023-11-21T09:06:42;5.38;;;1.40;;
28926;SDS011;16038;47.692;9.400;2023-11-21T09:09:08;9.57;;;2.13;;
28926;SDS011;16038;47.692;9.400;2023-11-21T09:11:35;3.78;;;1.65;;
28926;SDS011;16038;47.692;9.400;2023-11-21T09:14:01;6.00;;;1.45;;
28926;SDS011;16038;47.692;9.400;2023-11-21T09:16:29;3.13;;;1.52;;
28926;SDS011;16038;47.692;9.400;2023-11-21T09:18:55;4.20;;;1.88;;
28926;SDS011;16038;47.692;9.400;2023-11-21T09:21:23;4.55;;;1.50;;
28926;SDS011;16038;47.692;9.400;2023-11-21T09:23:49;5.63;;;1.35;;
28926;SDS011;16038;47.692;9.400;2023-11-21T09:26:15;6.18;;;2.00;;
28926;SDS011;16038;47.692;9.400;2023-11-21T09:28:41;6.32;;;2.05;;
28926;SDS011;16038;47.692;9.400;2023-11-21T09:31:11;4.95;;;1.55;;
28926;SDS011;16038;47.692;9.400;2023-11-21T09:33:37;5.05;;;1.50;;
28926;SDS011;16038;47.692;9.400;2023-11-21T09:36:03;6.03;;;1.52;;
28926;SDS011;16038;47.692;9.400;2023-11-21T09:38:30;3.42;;;1.75;;
28926;SDS011;16038;47.692;9.400;2023-11-21T09:40:56;7.25;;;1.80;;
28926;SDS011;16038;47.692;9.400;2023-11-21T09:43:25;9.50;;;1.60;;
28926;SDS011;16038;47.692;9.400;2023-11-21T09:45:54;5.68;;;1.95;;
28926;SDS011;16038;47.692;9.400;2023-11-21T09:48:27;9.40;;;2.28;;
28926;SDS011;16038;47.692;9.400;2023-11-21T09:50:55;5.05;;;1.42;;
28926;SDS011;16038;47.692;9.400;2023-11-21T09:53:22;4.30;;;1.60;;
28926;SDS011;16038;47.692;9.400;2023-11-21T09:55:51;4.72;;;1.60;;
28926;SDS011;16038;47.692;9.400;2023-11-21T09:58:18;2.97;;;1.40;;
28926;SDS011;16038;47.692;9.400;2023-11-21T10:00:47;3.40;;;1.50;;
28926;SDS011;16038;47.692;9.400;2023-11-21T10:03:14;5.95;;;1.50;;
28926;SDS011;16038;47.692;9.400;2023-11-21T10:05:43;5.18;;;2.03;;
28926;SDS011;16038;47.692;9.400;2023-11-21T10:08:11;3.05;;;1.65;;
28926;SDS011;16038;47.692;9.400;2023-11-21T10:10:42;2.63;;;1.55;;
28926;SDS011;16038;47.692;9.400;2023-11-21T10:13:13;6.47;;;1.70;;
28926;SDS011;16038;47.692;9.400;2023-11-21T10:15:42;2.63;;;1.50;;
28926;SDS011;16038;47.692;9.400;2023-11-21T10:18:13;5.10;;;1.73;;
28926;SDS011;16038;47.692;9.400;2023-11-21T10:20:40;3.10;;;1.55;;
28926;SDS011;16038;47.692;9.400;2023-11-21T10:23:06;4.43;;;1.70;;
28926;SDS011;16038;47.692;9.400;2023-11-21T10:25:36;4.05;;;1.58;;
28926;SDS011;16038;47.692;9.400;2023-11-21T10:28:02;8.75;;;1.70;;
28926;SDS011;16038;47.692;9.400;2023-11-21T10:30:33;1.98;;;1.25;;
28926;SDS011;16038;47.692;9.400;2023-11-21T10:33:02;4.38;;;1.10;;
28926;SDS011;16038;47.692;9.400;2023-11-21T10:38:15;5.30;;;1.20;;
28926;SDS011;16038;47.692;9.400;2023-11-21T10:40:41;17.23;;;1.90;;
28926;SDS011;16038;47.692;9.400;2023-11-21T10:43:13;5.65;;;1.38;;
28926;SDS011;16038;47.692;9.400;2023-11-21T10:45:40;3.28;;;1.50;;
28926;SDS011;16038;47.692;9.400;2023-11-21T10:48:06;5.70;;;1.83;;
28926;SDS011;16038;47.692;9.400;2023-11-21T10:50:40;4.93;;;2.20;;
28926;SDS011;16038;47.692;9.400;2023-11-21T10:53:09;5.50;;;1.30;;
28926;SDS011;16038;47.692;9.400;2023-11-21T10:55:36;4.95;;;1.50;;
28926;SDS011;16038;47.692;9.400;2023-11-21T10:58:03;9.15;;;1.70;;
28926;SDS011;16038;47.692;9.400;2023-11-21T11:00:30;4.05;;;1.27;;
28926;SDS011;16038;47.692;9.400;2023-11-21T11:02:57;7.45;;;1.63;;
28926;SDS011;16038;47.692;9.400;2023-11-21T11:05:24;4.45;;;1.52;;
28926;SDS011;16038;47.692;9.400;2023-11-21T11:08:08;5.60;;;1.90;;
28926;SDS011;16038;47.692;9.400;2023-11-21T11:10:37;8.35;;;2.33;;
28926;SDS011;16038;47.692;9.400;2023-11-21T11:13:02;5.95;;;2.20;;
28926;SDS011;16038;47.692;9.400;2023-11-21T11:15:29;5.30;;;1.85;;
28926;SDS011;16038;47.692;9.400;2023-11-21T11:17:54;5.05;;;1.55;;
28926;SDS011;16038;47.692;9.400;2023-11-21T11:20:25;4.37;;;1.50;;
28926;SDS011;16038;47.692;9.400;2023-11-21T11:34:31;6.70;;;1.13;;
28926;SDS011;16038;47.692;9.400;2023-11-21T11:41:55;1.90;;;0.85;;
28926;SDS011;16038;47.692;9.400;2023-11-21T11:47:26;3.80;;;0.90;;
28926;SDS011;16038;47.692;9.400;2023-11-21T11:50:04;2.17;;;1.10;;
28926;SDS011;16038;47.692;9.400;2023-11-21T11:52:51;2.75;;;0.80;;
28926;SDS011;16038;47.692;9.400;2023-11-21T11:55:19;4.05;;;1.00;;
28926;SDS011;16038;47.692;9.400;2023-11-21T11:57:50;2.65;;;1.40;;
28926;SDS011;16038;47.692;9.400;2023-11-21T12:02:50;3.25;;;1.58;;
28926;SDS011;16038;47.692;9.400;2023-11-21T12:05:18;4.32;;;1.20;;
28926;SDS011;16038;47.692;9.400;2023-11-21T12:10:28;3.70;;;1.15;;
28926;SDS011;16038;47.692;9.400;2023-11-21T12:13:02;3.60;;;1.20;;
28926;SDS011;16038;47.692;9.400;2023-11-21T12:15:32;1.58;;;0.90;;
28926;SDS011;16038;47.692;9.400;2023-11-21T12:18:00;8.13;;;1.13;;
28926;SDS011;16038;47.692;9.400;2023-11-21T12:20:26;1.75;;;0.90;;
28926;SDS011;16038;47.692;9.400;2023-11-21T12:22:56;4.03;;;0.88;;
28926;SDS011;16038;47.692;9.400;2023-11-21T12:25:30;2.45;;;1.00;;
28926;SDS011;16038;47.692;9.400;2023-11-21T12:28:00;2.22;;;0.65;;
28926;SDS011;16038;47.692;9.400;2023-11-21T12:30:31;1.98;;;0.80;;
28926;SDS011;16038;47.692;9.400;2023-11-21T12:33:01;9.73;;;4.43;;
28926;SDS011;16038;47.692;9.400;2023-11-21T12:35:34;3.33;;;1.15;;
28926;SDS011;16038;47.692;9.400;2023-11-21T12:38:01;3.03;;;1.17;;
28926;SDS011;16038;47.692;9.400;2023-11-21T12:40:27;3.83;;;0.95;;
28926;SDS011;16038;47.692;9.400;2023-11-21T12:42:54;1.73;;;0.80;;
28926;SDS011;16038;47.692;9.400;2023-11-21T12:45:21;1.45;;;0.60;;
28926;SDS011;16038;47.692;9.400;2023-11-21T12:47:55;8.90;;;4.88;;
28926;SDS011;16038;47.692;9.400;2023-11-21T12:50:25;2.42;;;0.85;;
28926;SDS011;16038;47.692;9.400;2023-11-21T12:52:53;2.10;;;0.73;;
28926;SDS011;16038;47.692;9.400;2023-11-21T12:55:23;8.32;;;0.95;;
28926;SDS011;16038;47.692;9.400;2023-11-21T12:57:49;4.07;;;0.85;;
28926;SDS011;16038;47.692;9.400;2023-11-21T13:00:29;4.30;;;1.33;;
28926;SDS011;16038;47.692;9.400;2023-11-21T13:02:58;3.63;;;1.35;;
28926;SDS011;16038;47.692;9.400;2023-11-21T13:05:25;3.65;;;1.23;;
28926;SDS011;16038;47.692;9.400;2023-11-21T13:07:59;3.10;;;1.10;;
28926;SDS011;16038;47.692;9.400;2023-11-21T13:12:58;3.53;;;1.20;;
28926;SDS011;16038;47.692;9.400;2023-11-21T13:15:27;4.47;;;1.25;;
28926;SDS011;16038;47.692;9.400;2023-11-21T13:17:53;1.33;;;0.90;;
28926;SDS011;16038;47.692;9.400;2023-11-21T13:20:19;1.77;;;1.10;;
28926;SDS011;16038;47.692;9.400;2023-11-21T13:22:49;3.85;;;2.40;;
28926;SDS011;16038;47.692;9.400;2023-11-21T13:25:18;2.42;;;0.98;;
28926;SDS011;16038;47.692;9.400;2023-11-21T13:27:44;1.38;;;0.80;;
28926;SDS011;16038;47.692;9.400;2023-11-21T13:30:13;1.70;;;0.95;;
28926;SDS011;16038;47.692;9.400;2023-11-21T13:32:48;2.58;;;1.60;;
28926;SDS011;16038;47.692;9.400;2023-11-21T13:35:16;3.00;;;2.10;;
28926;SDS011;16038;47.692;9.400;2023-11-21T13:37:56;2.78;;;1.55;;
28926;SDS011;16038;47.692;9.400;2023-11-21T13:40:25;2.45;;;1.50;;
28926;SDS011;16038;47.692;9.400;2023-11-21T13:42:52;1.10;;;0.80;;
28926;SDS011;16038;47.692;9.400;2023-11-21T13:45:20;2.97;;;0.98;;
28926;SDS011;16038;47.692;9.400;2023-11-21T13:47:48;1.83;;;0.90;;
28926;SDS011;16038;47.692;9.400;2023-11-21T13:52:47;1.67;;;0.80;;
28926;SDS011;16038;47.692;9.400;2023-11-21T13:55:13;2.65;;;1.10;;
28926;SDS011;16038;47.692;9.400;2023-11-21T13:57:42;2.92;;;0.82;;
28926;SDS011;16038;47.692;9.400;2023-11-21T14:00:12;1.88;;;0.60;;
28926;SDS011;16038;47.692;9.400;2023-11-21T14:02:57;2.63;;;2.15;;
28926;SDS011;16038;47.692;9.400;2023-11-21T14:05:25;3.08;;;1.27;;
28926;SDS011;16038;47.692;9.400;2023-11-21T14:07:56;2.20;;;0.40;;
28926;SDS011;16038;47.692;9.400;2023-11-21T14:10:28;0.88;;;0.50;;
28926;SDS011;16038;47.692;9.400;2023-11-21T14:13:02;0.40;;;0.40;;
28926;SDS011;16038;47.692;9.400;2023-11-21T14:15:28;0.68;;;0.47;;
28926;SDS011;16038;47.692;9.400;2023-11-21T14:17:54;1.05;;;0.68;;
28926;SDS011;16038;47.692;9.400;2023-11-21T14:20:20;1.50;;;1.20;;
28926;SDS011;16038;47.692;9.400;2023-11-21T14:22:46;2.80;;;1.33;;
28926;SDS011;16038;47.692;9.400;2023-11-21T14:25:11;2.10;;;1.30;;
28926;SDS011;16038;47.692;9.400;2023-11-21T14:27:39;3.67;;;1.00;;
28926;SDS011;16038;47.692;9.400;2023-11-21T14:30:05;2.58;;;0.60;;
28926;SDS011;16038;47.692;9.400;2023-11-21T14:32:31;4.82;;;0.68;;
28926;SDS011;16038;47.692;9.400;2023-11-21T14:34:57;2.95;;;0.70;;
28926;SDS011;16038;47.692;9.400;2023-11-21T14:37:22;1.83;;;0.80;;
28926;SDS011;16038;47.692;9.400;2023-11-21T14:39:49;2.85;;;0.70;;
28926;SDS011;16038;47.692;9.400;2023-11-21T14:42:15;4.07;;;1.85;;
28926;SDS011;16038;47.692;9.400;2023-11-21T14:44:40;2.50;;;1.40;;
28926;SDS011;16038;47.692;9.400;2023-11-21T14:47:07;4.20;;;0.90;;
28926;SDS011;16038;47.692;9.400;2023-11-21T14:49:42;2.03;;;0.95;;
28926;SDS011;16038;47.692;9.400;2023-11-21T14:52:18;2.20;;;1.70;;
28926;SDS011;16038;47.692;9.400;2023-11-21T14:54:58;3.53;;;2.05;;
28926;SDS011;16038;47.692;9.400;2023-11-21T14:57:42;1.65;;;1.02;;
28926;SDS011;16038;47.692;9.400;2023-11-21T15:00:14;1.25;;;0.73;;
28926;SDS011;16038;47.692;9.400;2023-11-21T15:03:16;1.55;;;0.68;;
28926;SDS011;16038;47.692;9.400;2023-11-21T15:05:57;1.30;;;0.68;;
28926;SDS011;16038;47.692;9.400;2023-11-21T15:11:18;3.70;;;1.30;;
28926;SDS011;16038;47.692;9.400;2023-11-21T15:13:44;2.50;;;1.90;;
28926;SDS011;16038;47.692;9.400;2023-11-21T15:16:09;2.50;;;1.80;;
28926;SDS011;16038;47.692;9.400;2023-11-21T15:18:37;3.45;;;2.83;;
28926;SDS011;16038;47.692;9.400;2023-11-21T15:21:03;4.20;;;2.70;;
28926;SDS011;16038;47.692;9.400;2023-11-21T15:23:29;2.83;;;2.05;;